Terminal Aerodrome Forecast
Issued by NWS

Home | Current Version | Previous Version | Text Only | Print | Product List | Glossary On
Versions: 1 2 3 4 5 6 7 8 9 10 11 12 13 14 15 16 17
845
FTUS46 KPDT 182320
TAFRDM
TAF
KRDM 182320Z 1900/1924 14006KT P6SM BKN200
     FM190400 16004KT P6SM SCT200
     FM192000 20005KT P6SM BKN200=

USA.gov is the U.S. government's official web portal to all federal, state and local government web resources and services.